Time;durP1;ratioP1;P1;durP2;ratioP2;P2;SDS_P1;SDS_P2;PMS_P1;PMS_P2;Temp;Humidity;BMP_temperature;BMP_pressure;BME280_temperature;BME280_humidity;BME280_pressure;Samples;Min_cycle;Max_cycle;Signal;HPM_P1;HPM_P2
2023/01/11 00:00:21;;;;;;;;;0.00;0.00;;;;;13.20;73.20;100820.00;5020119;28;45347;-58
2023/01/11 00:02:47;;;;;;;;;1.00;1.00;;;;;13.17;73.74;100813.03;5019301;28;45348;-57
2023/01/11 00:05:13;;;;;;;;;2.50;2.50;;;;;13.21;73.77;100813.81;5020180;28;46218;-57
2023/01/11 00:07:39;;;;;;;;;1.75;1.75;;;;;13.20;73.56;100806.81;5020624;28;45337;-57
2023/01/11 00:10:06;;;;;;;;;2.00;1.00;;;;;13.20;73.90;100801.53;5020192;28;45310;-57
2023/01/11 00:12:31;;;;;;;;;2.00;2.00;;;;;13.17;73.53;100810.38;5020200;28;45349;-57
2023/01/11 00:14:57;;;;;;;;;3.25;2.00;;;;;13.25;74.02;100807.56;5019944;28;45994;-57
2023/01/11 00:17:22;;;;;;;;;2.25;1.75;;;;;13.23;73.67;100808.50;5020424;28;45252;-57
2023/01/11 00:19:47;;;;;;;;;1.00;1.00;;;;;13.27;73.40;100795.19;5019939;28;45532;-57
2023/01/11 00:22:13;;;;;;;;;1.75;1.00;;;;;13.30;73.62;100795.13;5020332;28;45214;-57
2023/01/11 00:24:38;;;;;;;;;2.00;1.00;;;;;13.30;73.46;100799.53;5018709;28;46339;-57
2023/01/11 00:27:03;;;;;;;;;2.00;2.00;;;;;13.29;73.55;100821.56;5020329;28;45568;-57
2023/01/11 00:29:29;;;;;;;;;1.75;1.75;;;;;13.28;73.56;100803.97;5019877;28;45285;-57
2023/01/11 00:31:54;;;;;;;;;4.00;1.00;;;;;13.27;73.68;100795.19;5020124;28;45340;-57
2023/01/11 00:34:20;;;;;;;;;2.50;1.00;;;;;13.27;73.91;100792.56;5019854;28;45365;-57
2023/01/11 00:36:45;;;;;;;;;1.75;1.75;;;;;13.25;73.56;100789.09;5020090;28;45376;-57
2023/01/11 00:39:10;;;;;;;;;2.75;2.00;;;;;13.25;73.55;100794.38;5020310;28;45356;-57
2023/01/11 00:49:47;;;;;;;;;2.00;1.00;;;;;13.23;73.55;100783.00;5019900;28;45413;-57
2023/01/11 00:52:13;;;;;;;;;1.50;1.00;;;;;13.21;74.48;100787.44;5035096;28;45478;-58
2023/01/11 00:54:40;;;;;;;;;2.00;2.00;;;;;13.19;74.21;100791.00;5019653;28;47109;-57
2023/01/11 00:57:06;;;;;;;;;0.75;0.75;;;;;13.14;73.51;100762.09;5018512;28;45337;-57
2023/01/11 00:59:33;;;;;;;;;1.25;0.00;;;;;13.16;74.01;100770.84;5019546;28;45403;-56
2023/01/11 01:01:58;;;;;;;;;3.25;1.00;;;;;13.12;74.42;100785.03;5019512;28;45432;-57
2023/01/11 01:04:24;;;;;;;;;2.50;1.50;;;;;13.12;74.41;100754.22;5018159;28;46318;-57
2023/01/11 01:06:49;;;;;;;;;2.00;2.00;;;;;13.10;74.58;100755.16;5019750;28;45342;-57
2023/01/11 01:09:14;;;;;;;;;0.50;0.25;;;;;12.96;73.86;100751.09;5019626;28;45174;-57
2023/01/11 01:11:40;;;;;;;;;3.00;1.00;;;;;13.05;74.42;100755.28;5019296;28;45208;-57
2023/01/11 01:16:49;;;;;;;;;1.00;1.00;;;;;13.00;73.76;100758.03;5019568;28;45220;-57
2023/01/11 01:19:15;;;;;;;;;0.00;0.00;;;;;12.96;74.54;100753.72;5018159;28;45326;-57
2023/01/11 01:21:40;;;;;;;;;1.00;1.00;;;;;12.97;74.52;100768.66;5019435;28;45232;-57
2023/01/11 01:24:06;;;;;;;;;2.25;2.25;;;;;12.95;74.66;100761.69;5017890;28;45197;-58
2023/01/11 01:26:32;;;;;;;;;0.25;0.25;;;;;12.97;74.98;100738.78;5019344;28;45258;-57
2023/01/11 01:28:57;;;;;;;;;1.00;1.00;;;;;12.92;74.59;100746.78;5019161;28;45273;-57
2023/01/11 01:31:22;;;;;;;;;0.00;0.00;;;;;12.95;75.13;100757.25;5020303;28;45699;-56
2023/01/11 01:33:48;;;;;;;;;0.00;0.00;;;;;12.97;75.18;100751.97;5022801;28;45225;-57
2023/01/11 01:36:13;;;;;;;;;0.25;0.25;;;;;12.91;75.25;100744.19;5022988;28;45220;-56
2023/01/11 01:38:38;;;;;;;;;1.75;1.00;;;;;12.90;76.04;100753.88;5023066;28;45241;-57
2023/01/11 01:41:04;;;;;;;;;1.00;1.00;;;;;12.84;75.52;100735.53;5022475;28;45463;-57
2023/01/11 01:43:44;;;;;;;;;1.00;1.00;;;;;12.85;75.65;100742.56;5021327;28;47179;-55
2023/01/11 01:46:09;;;;;;;;;1.00;1.00;;;;;12.85;75.82;100739.91;5022452;28;45174;-57
2023/01/11 01:48:36;;;;;;;;;1.75;1.00;;;;;12.87;75.40;100734.59;5022555;28;45297;-57
2023/01/11 01:51:03;;;;;;;;;1.00;0.75;;;;;12.79;75.94;100729.50;5022493;28;45487;-57
2023/01/11 01:53:37;;;;;;;;;1.25;0.00;;;;;12.75;75.47;100734.00;5022373;28;46089;-57
2023/01/11 01:56:25;;;;;;;;;1.00;1.00;;;;;12.74;75.39;100744.59;5022372;28;45717;-56
2023/01/11 01:58:58;;;;;;;;;3.50;1.00;;;;;12.66;75.37;100721.03;5022200;28;45322;-57
2023/01/11 02:04:13;;;;;;;;;0.50;0.50;;;;;12.78;74.94;100728.66;5022445;28;45392;-57
2023/01/11 02:06:39;;;;;;;;;1.00;0.00;;;;;12.75;75.94;100728.72;5022439;28;45408;-57
2023/01/11 02:09:30;;;;;;;;;1.00;1.00;;;;;12.75;76.01;100733.13;5022573;28;45239;-57
2023/01/11 02:11:57;;;;;;;;;2.00;1.00;;;;;12.79;75.73;100727.75;5000843;28;45731;-57
2023/01/11 02:14:23;;;;;;;;;0.00;0.00;;;;;12.73;74.94;100722.63;5021834;28;46240;-56
2023/01/11 02:16:49;;;;;;;;;2.00;1.00;;;;;12.75;74.53;100744.53;5022392;28;45225;-56
2023/01/11 02:19:56;;;;;;;;;0.00;0.00;;;;;12.76;75.39;100724.31;5022127;28;45257;-57
2023/01/11 02:22:43;;;;;;;;;1.25;1.00;;;;;12.78;75.47;100730.41;5021659;28;45336;-57
2023/01/11 02:25:40;;;;;;;;;1.00;1.00;;;;;12.81;76.37;100730.34;5022255;28;46378;-57
2023/01/11 02:28:24;;;;;;;;;0.00;0.00;;;;;12.81;75.94;100730.34;4999106;28;45545;-57
2023/01/11 02:31:16;;;;;;;;;0.00;0.00;;;;;12.78;75.82;100739.22;5021603;28;45387;-57
2023/01/11 02:34:26;;;;;;;;;0.00;0.00;;;;;12.83;75.73;100747.88;5021898;28;45246;-57
2023/01/11 02:37:03;;;;;;;;;0.00;0.00;;;;;12.80;76.21;100728.63;5021517;28;46146;-57
2023/01/11 02:39:41;;;;;;;;;0.00;0.00;;;;;12.88;76.22;100724.03;5020551;28;45415;-57
2023/01/11 02:45:31;;;;;;;;;0.00;0.00;;;;;12.79;75.33;100717.22;5021398;28;45372;-57
2023/01/11 02:48:12;;;;;;;;;0.00;0.00;;;;;12.83;75.94;100716.22;5020205;28;47438;-57
2023/01/11 02:50:59;;;;;;;;;0.00;0.00;;;;;12.84;75.43;100710.06;5021299;28;45324;-57
2023/01/11 02:53:35;;;;;;;;;0.00;0.00;;;;;12.93;75.98;100710.72;5021663;28;45248;-57
2023/01/11 02:56:07;;;;;;;;;0.00;0.00;;;;;12.91;75.75;100697.56;5021667;28;45300;-57
2023/01/11 02:58:36;;;;;;;;;0.00;0.00;;;;;12.87;76.15;100717.03;5021540;28;46397;-57
2023/01/11 03:01:03;;;;;;;;;3.50;3.00;;;;;12.90;75.91;100711.66;5020971;28;45404;-57
2023/01/11 03:03:29;;;;;;;;;3.50;3.00;;;;;12.93;76.13;100706.34;5021813;28;45299;-57
2023/01/11 03:06:03;;;;;;;;;1.00;1.00;;;;;12.98;75.62;100698.28;5020086;28;45443;-57
2023/01/11 03:09:07;;;;;;;;;3.00;0.50;;;;;13.05;75.85;100717.47;5021451;28;46374;-57
2023/01/11 03:14:40;;;;;;;;;0.00;0.00;;;;;13.00;75.92;100701.75;5021232;28;45225;-57
2023/01/11 03:17:41;;;;;;;;;0.00;0.00;;;;;12.98;75.84;100717.63;5021155;28;45530;-56
2023/01/11 03:20:12;;;;;;;;;0.00;0.00;;;;;12.99;75.78;100711.47;5021391;28;45307;-56
2023/01/11 03:23:10;;;;;;;;;0.00;0.00;;;;;13.00;75.78;100701.75;5019707;28;45523;-56
2023/01/11 03:25:46;;;;;;;;;0.50;0.00;;;;;13.02;75.92;100707.88;5006573;28;45259;-56
2023/01/11 03:28:26;;;;;;;;;0.00;0.00;;;;;13.05;75.92;100705.16;5019646;28;45286;-57
2023/01/11 03:31:17;;;;;;;;;0.00;0.00;;;;;13.01;76.12;100699.06;5020483;28;45265;-56
2023/01/11 03:34:07;;;;;;;;;0.75;0.00;;;;;13.01;76.25;100714.91;5020918;28;45449;-56
2023/01/11 03:36:38;;;;;;;;;1.00;0.00;;;;;13.06;75.72;100703.41;5019800;28;45462;-57
2023/01/11 03:39:04;;;;;;;;;0.50;0.50;;;;;13.06;75.95;100703.41;5020866;28;45425;-57
2023/01/11 03:41:36;;;;;;;;;0.00;0.00;;;;;13.05;75.89;100699.88;5020567;28;45394;-57
2023/01/11 03:44:05;;;;;;;;;0.00;0.00;;;;;13.06;75.68;100706.03;5020840;28;45285;-56
2023/01/11 03:46:40;;;;;;;;;0.00;0.00;;;;;13.06;75.76;100701.59;5020801;28;45273;-56
2023/01/11 03:49:28;;;;;;;;;0.50;0.00;;;;;13.11;76.43;100712.91;5020875;28;45467;-57
2023/01/11 03:51:57;;;;;;;;;0.00;0.00;;;;;13.09;75.96;100705.94;5020507;28;45257;-57
2023/01/11 03:54:25;;;;;;;;;0.00;0.00;;;;;13.07;76.11;100703.34;5018746;28;45306;-56
2023/01/11 03:57:41;;;;;;;;;0.00;0.00;;;;;13.12;76.25;100711.16;5020507;28;45355;-55
2023/01/11 04:00:07;;;;;;;;;0.00;0.00;;;;;13.01;76.54;100714.06;4997302;28;45452;-56
2023/01/11 04:02:38;;;;;;;;;0.00;0.00;;;;;13.03;76.10;100714.00;5020136;28;46248;-56
2023/01/11 04:05:04;;;;;;;;;0.50;0.50;;;;;12.94;75.81;100720.38;5020711;28;45210;-55
2023/01/11 04:07:30;;;;;;;;;0.00;0.00;;;;;12.91;75.84;100700.22;5020121;28;45344;-56
2023/01/11 04:09:57;;;;;;;;;0.00;0.00;;;;;12.94;76.19;100721.25;5020382;28;45602;-55
2023/01/11 04:12:23;;;;;;;;;0.00;0.00;;;;;12.98;76.11;100708.84;5020111;28;46247;-56
2023/01/11 04:14:48;;;;;;;;;0.00;0.00;;;;;12.98;76.63;100716.75;5020260;28;45338;-55
2023/01/11 04:17:13;;;;;;;;;0.00;0.00;;;;;12.93;76.13;100713.34;5020540;28;45342;-54
2023/01/11 04:19:38;;;;;;;;;0.00;0.00;;;;;12.96;76.51;100729.97;5020602;28;45438;-55
2023/01/11 04:22:04;;;;;;;;;0.00;0.00;;;;;12.94;76.04;100723.91;5020230;28;45256;-55
2023/01/11 04:24:29;;;;;;;;;0.00;0.00;;;;;12.92;76.41;100717.78;5020413;28;45208;-55
2023/01/11 04:26:54;;;;;;;;;0.00;0.00;;;;;12.99;76.50;100727.28;5019115;28;45218;-55
2023/01/11 04:29:20;;;;;;;;;0.00;0.00;;;;;12.98;76.32;100725.53;5019026;28;45178;-55
2023/01/11 04:31:45;;;;;;;;;0.00;0.00;;;;;12.98;76.48;100724.66;5019970;28;46096;-54
2023/01/11 04:34:11;;;;;;;;;0.00;0.00;;;;;13.01;76.37;100729.88;5020266;28;45162;-55
2023/01/11 04:36:36;;;;;;;;;0.00;0.00;;;;;12.99;76.36;100732.56;5019066;28;45456;-54
2023/01/11 04:39:01;;;;;;;;;0.00;0.00;;;;;12.99;76.77;100737.84;5020471;28;45194;-55
2023/01/11 04:44:11;;;;;;;;;0.00;0.00;;;;;12.97;76.43;100744.06;5020257;28;45301;-55
2023/01/11 04:46:36;;;;;;;;;0.00;0.00;;;;;12.97;76.37;100744.91;5020023;28;45302;-54
2023/01/11 04:49:02;;;;;;;;;0.25;0.25;;;;;12.99;76.47;100747.50;5019904;28;45235;-54
2023/01/11 04:51:27;;;;;;;;;0.00;0.00;;;;;13.01;76.65;100746.56;5019585;28;46102;-55
2023/01/11 04:53:53;;;;;;;;;2.00;0.25;;;;;13.00;76.68;100744.84;5020140;28;45184;-55
2023/01/11 04:56:18;;;;;;;;;0.25;0.00;;;;;12.99;76.65;100750.13;5019988;28;45210;-54
2023/01/11 04:58:44;;;;;;;;;0.50;0.00;;;;;13.03;76.75;100753.56;5020013;28;45237;-54
2023/01/11 05:01:17;;;;;;;;;0.00;0.00;;;;;13.05;76.39;100767.59;5019285;28;46834;-55
2023/01/11 05:03:44;;;;;;;;;0.00;0.00;;;;;13.00;76.46;100768.59;5018610;28;45212;-55
2023/01/11 05:06:10;;;;;;;;;0.00;0.00;;;;;12.97;76.41;100768.66;5021509;28;45279;-54
2023/01/11 05:08:35;;;;;;;;;0.00;0.00;;;;;13.02;76.88;100771.19;5023306;28;45569;-54
2023/01/11 05:11:06;;;;;;;;;1.00;1.00;;;;;13.04;76.38;100781.69;5022926;28;45426;-55
2023/01/11 05:13:41;;;;;;;;;0.00;0.00;;;;;13.05;76.53;100788.72;5023512;28;45248;-54
2023/01/11 05:16:22;;;;;;;;;0.00;0.00;;;;;12.99;76.18;100787.97;5023061;28;45447;-54
2023/01/11 05:18:48;;;;;;;;;0.00;0.00;;;;;13.02;76.90;100789.66;5023114;28;45281;-54
2023/01/11 05:21:17;;;;;;;;;0.00;0.00;;;;;13.05;76.57;100801.91;5022917;28;45480;-55
2023/01/11 05:23:42;;;;;;;;;0.00;0.00;;;;;13.03;75.85;100796.66;5023245;28;45333;-55
2023/01/11 05:26:10;;;;;;;;;0.00;0.00;;;;;12.98;75.69;100799.41;5023036;28;45533;-55
2023/01/11 05:28:36;;;;;;;;;0.00;0.00;;;;;13.01;75.81;100801.97;5023202;28;45378;-55
2023/01/11 05:31:02;;;;;;;;;0.00;0.00;;;;;13.01;75.50;100809.88;5021250;28;47195;-54
2023/01/11 05:33:28;;;;;;;;;0.00;0.00;;;;;13.03;75.46;100811.59;5023042;28;45308;-55
2023/01/11 05:36:01;;;;;;;;;0.00;0.00;;;;;13.03;75.25;100806.34;5023143;28;45324;-55
2023/01/11 05:38:27;;;;;;;;;0.00;0.00;;;;;13.01;75.54;100820.41;5022761;28;45320;-55
2023/01/11 05:41:00;;;;;;;;;0.00;0.00;;;;;13.00;75.04;100837.19;5022668;28;46258;-55
2023/01/11 05:43:27;;;;;;;;;0.00;0.00;;;;;13.00;75.34;100847.72;5022532;28;45479;-55
2023/01/11 05:45:52;;;;;;;;;0.00;0.00;;;;;12.97;74.87;100863.59;5022702;28;45378;-54
2023/01/11 05:48:18;;;;;;;;;1.00;0.00;;;;;12.97;75.18;100863.59;5022478;28;45267;-55
2023/01/11 05:50:49;;;;;;;;;0.00;0.00;;;;;12.94;74.26;100868.97;5022500;28;45340;-53
2023/01/11 05:53:14;;;;;;;;;1.75;0.00;;;;;12.87;74.30;100870.00;5022288;28;45325;-54
2023/01/11 05:55:51;;;;;;;;;1.25;0.25;;;;;12.84;73.90;100863.03;5004760;28;45333;-55
2023/01/11 05:58:16;;;;;;;;;1.00;0.00;;;;;12.77;73.97;100871.09;5022386;28;45383;-55
2023/01/11 06:00:41;;;;;;;;;0.00;0.00;;;;;12.74;73.95;100873.78;5019434;28;45486;-55
2023/01/11 06:03:07;;;;;;;;;1.75;1.75;;;;;12.67;73.92;100867.78;5020947;28;45384;-55
2023/01/11 06:05:33;;;;;;;;;1.00;1.00;;;;;12.63;73.92;100866.13;5021072;28;45418;-53
2023/01/11 06:07:59;;;;;;;;;2.00;1.00;;;;;12.59;74.02;100865.31;5019649;28;45919;-54
2023/01/11 06:10:24;;;;;;;;;0.25;0.00;;;;;12.56;74.19;100877.69;5020563;28;46552;-55
2023/01/11 06:13:25;;;;;;;;;2.50;0.25;;;;;12.53;74.10;100886.53;5022069;28;45329;-55
2023/01/11 06:15:39;;;;;;;;;0.75;0.00;;;;;12.52;73.96;100897.97;5021925;28;45410;-54
2023/01/11 06:18:04;;;;;;;;;1.50;1.00;;;;;12.51;73.81;100891.81;5021884;28;45467;-54
2023/01/11 06:20:29;;;;;;;;;3.00;1.00;;;;;12.48;73.84;100899.78;5021944;28;45456;-54
2023/01/11 06:22:54;;;;;;;;;2.00;0.25;;;;;12.44;73.97;100895.47;5022229;28;45264;-55
2023/01/11 06:25:20;;;;;;;;;1.25;1.25;;;;;12.42;73.98;100907.81;5022390;28;45415;-55
2023/01/11 06:27:45;;;;;;;;;1.25;1.25;;;;;12.41;73.73;100903.41;5022166;28;45493;-54
2023/01/11 06:30:11;;;;;;;;;4.00;2.00;;;;;12.40;73.92;100914.00;5021731;28;45990;-55
2023/01/11 06:32:36;;;;;;;;;4.75;2.00;;;;;12.39;73.84;100920.16;5021948;28;45309;-56
2023/01/11 06:35:01;;;;;;;;;3.25;1.50;;;;;12.39;73.84;100928.97;5022329;28;45451;-55
2023/01/11 06:37:27;;;;;;;;;3.50;2.25;;;;;12.36;73.59;100929.00;5021778;28;45344;-57
2023/01/11 06:39:52;;;;;;;;;2.75;2.00;;;;;12.36;73.67;100931.63;5021703;28;45550;-54
2023/01/11 06:42:17;;;;;;;;;3.00;1.00;;;;;12.34;73.46;100923.75;5021543;28;45347;-55
2023/01/11 06:44:43;;;;;;;;;2.00;2.00;;;;;12.33;73.28;100927.28;5021687;28;45320;-55
2023/01/11 06:47:08;;;;;;;;;4.00;1.75;;;;;12.33;73.60;100943.09;5021639;28;45317;-55
2023/01/11 06:49:33;;;;;;;;;1.75;1.00;;;;;12.33;73.53;100956.28;5020129;28;46189;-55
2023/01/11 06:51:58;;;;;;;;;5.75;1.75;;;;;12.31;73.46;100951.94;5020017;28;45396;-55
2023/01/11 06:54:24;;;;;;;;;1.75;1.75;;;;;12.30;73.62;100935.28;5020476;28;45364;-43
2023/01/11 06:56:50;;;;;;;;;4.75;3.25;;;;;12.32;73.26;100948.41;5019961;28;45546;-46
2023/01/11 06:59:15;;;;;;;;;3.00;2.00;;;;;12.31;73.23;100958.09;5020210;28;46973;-45
2023/01/11 07:01:40;;;;;;;;;4.00;2.25;;;;;12.29;73.44;100957.25;5021522;28;45243;-52
2023/01/11 07:04:05;;;;;;;;;2.00;0.50;;;;;12.30;73.46;100971.28;5017901;28;45216;-51
2023/01/11 07:06:33;;;;;;;;;7.50;2.00;;;;;12.26;73.18;100974.88;5006928;28;45179;-47
2023/01/11 07:08:59;;;;;;;;;3.25;2.00;;;;;12.25;73.18;100973.13;5020034;28;46401;-50
2023/01/11 07:11:24;;;;;;;;;3.75;1.75;;;;;12.25;73.38;100978.38;5020799;28;45462;-54
2023/01/11 07:13:49;;;;;;;;;3.75;1.00;;;;;12.24;73.27;100976.66;5015836;28;45331;-51
2023/01/11 07:16:16;;;;;;;;;5.75;2.00;;;;;12.24;73.26;100977.53;5021010;28;45368;-52
2023/01/11 07:18:41;;;;;;;;;2.00;1.75;;;;;12.23;73.18;100975.78;5015817;28;45354;-52
2023/01/11 07:21:07;;;;;;;;;1.50;1.50;;;;;12.23;73.28;100970.53;5019474;28;45439;-53
2023/01/11 07:23:32;;;;;;;;;14.25;9.75;;;;;12.22;73.27;100978.47;5017807;28;45375;-54
2023/01/11 07:25:58;;;;;;;;;4.50;2.00;;;;;12.23;72.94;100981.06;5020907;28;45335;-54
2023/01/11 07:28:23;;;;;;;;;2.75;2.75;;;;;12.23;73.00;100986.31;5019621;28;45398;-50
2023/01/11 07:30:49;;;;;;;;;4.00;1.25;;;;;12.21;72.86;100990.75;5020583;28;45364;-59
2023/01/11 07:33:15;;;;;;;;;5.25;3.75;;;;;12.22;73.31;100986.34;5019707;28;45278;-50
2023/01/11 07:35:40;;;;;;;;;5.25;2.00;;;;;12.21;73.05;101003.06;5015460;28;45178;-53
2023/01/11 07:38:08;;;;;;;;;4.25;2.50;;;;;12.17;73.06;101013.63;5018413;28;45186;-48
2023/01/11 07:40:35;;;;;;;;;6.25;2.25;;;;;12.16;72.83;101005.75;5019009;28;45481;-52
2023/01/11 07:43:13;;;;;;;;;1.00;1.00;;;;;12.15;73.12;101015.44;5019154;28;45587;-52
2023/01/11 07:45:48;;;;;;;;;3.00;1.00;;;;;12.10;72.71;101005.84;5012899;28;45383;-51
2023/01/11 07:48:15;;;;;;;;;1.75;1.75;;;;;12.11;72.97;101018.13;5020044;28;46284;-51
2023/01/11 07:50:41;;;;;;;;;2.50;1.25;;;;;12.08;72.83;101028.75;5019771;28;45452;-49
2023/01/11 07:53:08;;;;;;;;;1.75;1.00;;;;;12.08;72.87;101047.19;5020517;28;45460;-50
2023/01/11 07:55:34;;;;;;;;;2.50;1.75;;;;;12.05;72.67;101053.38;5020711;28;45442;-51
2023/01/11 07:57:59;;;;;;;;;4.00;1.75;;;;;12.06;72.76;101059.50;5020224;28;46049;-49
2023/01/11 08:00:25;;;;;;;;;2.25;1.50;;;;;11.94;72.90;101052.63;5020139;28;45330;-52
2023/01/11 08:02:51;;;;;;;;;2.50;2.50;;;;;12.02;72.50;101075.34;5017315;28;45461;-49
2023/01/11 08:05:20;;;;;;;;;3.50;3.00;;;;;12.02;72.61;101074.47;5020161;28;45366;-52
2023/01/11 08:07:45;;;;;;;;;2.50;2.50;;;;;12.00;72.73;101087.66;5020162;28;45353;-50
2023/01/11 08:10:11;;;;;;;;;3.00;2.00;;;;;11.98;72.86;101084.19;5016763;28;45288;-52
2023/01/11 08:15:29;;;;;;;;;4.00;2.75;;;;;11.94;72.72;101095.63;5015815;28;45296;-53
2023/01/11 08:17:54;;;;;;;;;2.50;2.00;;;;;11.95;72.79;101097.38;5016951;28;46251;-48
2023/01/11 08:20:19;;;;;;;;;4.00;2.00;;;;;11.93;72.83;101100.91;5035316;28;45316;-52
2023/01/11 08:22:45;;;;;;;;;4.00;2.50;;;;;11.93;72.67;101114.09;5020197;28;45637;-49
2023/01/11 08:25:10;;;;;;;;;3.25;2.25;;;;;11.93;72.52;101116.72;5019852;28;45333;-50
2023/01/11 08:27:36;;;;;;;;;1.00;1.00;;;;;11.91;72.60;101114.13;5017023;28;45229;-52
2023/01/11 08:30:01;;;;;;;;;23.50;19.25;;;;;11.92;72.66;101115.84;5019709;28;45143;-51
2023/01/11 08:32:28;;;;;;;;;5.50;5.00;;;;;11.88;72.69;101124.69;5019999;28;45624;-49
2023/01/11 08:34:53;;;;;;;;;1.00;1.00;;;;;11.84;72.38;101134.38;5019942;28;45444;-51
2023/01/11 08:37:18;;;;;;;;;6.50;3.00;;;;;11.82;72.68;101130.03;5019798;28;45358;-50
2023/01/11 08:39:43;;;;;;;;;2.50;1.00;;;;;11.82;72.47;101133.53;5019764;28;45273;-51
2023/01/11 08:42:09;;;;;;;;;3.00;2.00;;;;;11.85;72.60;101135.25;5034996;28;45317;-52
2023/01/11 08:44:34;;;;;;;;;1.00;1.00;;;;;11.81;72.36;101139.69;5019161;28;45265;-52
2023/01/11 08:47:01;;;;;;;;;4.50;1.50;;;;;11.82;72.46;101140.56;5019830;28;46790;-49
2023/01/11 08:49:27;;;;;;;;;0.50;0.50;;;;;11.82;72.09;101151.97;5014675;28;45496;-48
2023/01/11 08:51:52;;;;;;;;;1.25;1.00;;;;;11.80;72.32;101147.63;5034983;28;45360;-50
2023/01/11 08:54:17;;;;;;;;;2.25;1.75;;;;;11.81;72.14;101160.75;5019778;28;45389;-50
2023/01/11 08:56:43;;;;;;;;;3.00;2.00;;;;;11.81;72.01;101155.50;5019457;28;45304;-47
2023/01/11 08:59:09;;;;;;;;;3.00;3.00;;;;;11.80;72.08;101156.38;5017970;28;45642;-49
2023/01/11 09:01:35;;;;;;;;;4.25;4.00;;;;;11.78;72.29;101166.03;5015381;28;45440;-52
2023/01/11 09:04:00;;;;;;;;;5.50;2.50;;;;;11.80;71.90;101160.78;5019552;28;45432;-53
2023/01/11 09:06:26;;;;;;;;;8.00;3.75;;;;;11.81;72.06;101160.75;5019266;28;45212;-50
2023/01/11 09:08:51;;;;;;;;;1.50;1.00;;;;;11.81;72.04;101163.41;5019774;28;45250;-48
2023/01/11 09:14:01;;;;;;;;;6.00;2.00;;;;;11.86;72.24;101174.75;5015772;28;45206;-53
2023/01/11 09:16:26;;;;;;;;;4.50;3.00;;;;;11.88;72.08;101172.06;5019156;28;45261;-48
2023/01/11 09:18:52;;;;;;;;;5.50;2.50;;;;;11.97;71.97;101187.78;5017808;28;45391;-49
2023/01/11 09:21:18;;;;;;;;;3.00;1.00;;;;;12.03;71.63;101184.22;5019375;28;45630;-49
2023/01/11 09:23:44;;;;;;;;;2.00;1.00;;;;;12.10;71.86;101192.91;5017976;28;46212;-49
2023/01/11 09:26:13;;;;;;;;;7.00;3.00;;;;;12.15;71.68;101191.06;5018946;28;46086;-52
2023/01/11 09:28:39;;;;;;;;;5.00;1.00;;;;;12.17;71.40;101205.97;5019082;28;45303;-50
2023/01/11 09:31:05;;;;;;;;;6.25;3.00;;;;;12.17;71.41;101205.97;5018812;28;45237;-53
2023/01/11 09:33:30;;;;;;;;;4.75;2.25;;;;;12.24;71.25;101219.94;5019072;28;45403;-50
2023/01/11 09:35:57;;;;;;;;;2.50;1.00;;;;;12.30;71.12;101204.06;5017585;28;46369;-51
2023/01/11 09:38:29;;;;;;;;;5.75;2.75;;;;;12.32;70.87;101209.28;5019137;28;45268;-51
2023/01/11 09:41:45;;;;;;;;;6.00;2.50;;;;;12.35;70.79;101209.25;5019054;28;45262;-52
2023/01/11 09:44:25;;;;;;;;;5.00;2.00;;;;;12.36;70.50;101210.97;4982882;28;45394;-53
2023/01/11 09:46:55;;;;;;;;;2.25;1.00;;;;;12.37;70.19;101214.50;5018772;28;45381;-50
2023/01/11 09:49:41;;;;;;;;;2.25;1.50;;;;;12.40;70.14;101227.63;5016020;28;45367;-50
2023/01/11 09:52:37;;;;;;;;;5.50;2.00;;;;;12.33;69.96;101246.16;5019761;28;45253;-50
2023/01/11 09:55:03;;;;;;;;;3.50;1.00;;;;;12.31;70.04;101233.91;5022313;28;45229;-51
2023/01/11 09:57:40;;;;;;;;;0.75;0.75;;;;;12.30;69.83;101246.22;5022148;28;47461;-49
2023/01/11 10:00:26;;;;;;;;;3.25;1.00;;;;;12.33;69.84;101258.47;5020599;28;45299;-49
2023/01/11 10:03:07;;;;;;;;;2.75;1.75;;;;;12.30;69.72;101262.03;5016432;28;45333;-51
2023/01/11 10:05:50;;;;;;;;;3.00;2.50;;;;;12.30;69.03;101266.41;5010412;28;45457;-50
2023/01/11 10:08:40;;;;;;;;;3.00;1.00;;;;;12.23;68.89;101268.25;5019195;28;45425;-50
2023/01/11 10:11:06;;;;;;;;;1.25;1.00;;;;;12.25;68.85;101274.41;5021850;28;45391;-52
2023/01/11 10:13:55;;;;;;;;;3.75;1.75;;;;;12.24;68.94;101280.56;5018100;28;45541;-52
2023/01/11 10:16:37;;;;;;;;;1.50;1.00;;;;;12.21;68.69;101282.34;5019362;28;45182;-53
2023/01/11 10:19:15;;;;;;;;;6.25;2.00;;;;;12.19;68.79;101275.31;5021663;28;45915;-53
2023/01/11 10:21:59;;;;;;;;;2.50;1.00;;;;;12.19;68.91;101283.22;5022045;28;45155;-48
2023/01/11 10:24:34;;;;;;;;;3.50;1.00;;;;;12.20;68.49;101294.66;5019097;28;45373;-52
2023/01/11 10:27:06;;;;;;;;;2.00;1.25;;;;;12.19;68.89;101288.50;5020511;28;45342;-52
2023/01/11 10:30:05;;;;;;;;;1.75;1.75;;;;;12.23;68.54;101284.06;5020752;28;45416;-52
2023/01/11 10:32:56;;;;;;;;;4.00;1.75;;;;;12.24;68.46;101285.81;5021717;28;45419;-50
2023/01/11 10:36:04;;;;;;;;;8.00;1.75;;;;;12.23;68.22;101291.13;5020220;28;45339;-50
2023/01/11 10:39:26;;;;;;;;;5.00;2.50;;;;;12.29;68.13;101298.91;5020335;28;45340;-52
2023/01/11 10:42:02;;;;;;;;;4.75;2.25;;;;;12.33;68.08;101292.75;5018942;28;46254;-52
2023/01/11 10:44:36;;;;;;;;;8.00;2.50;;;;;12.36;68.12;101297.97;5021400;28;45273;-52
2023/01/11 10:47:04;;;;;;;;;1.25;1.25;;;;;12.39;67.92;101304.94;5018817;28;45312;-52
2023/01/11 10:49:46;;;;;;;;;3.25;2.25;;;;;12.37;68.44;101306.75;5017268;28;45254;-49
2023/01/11 10:52:34;;;;;;;;;5.00;1.00;;;;;12.47;67.88;101292.56;5021306;28;46249;-49
2023/01/11 10:55:39;;;;;;;;;1.50;1.00;;;;;12.49;68.11;101298.66;5019947;28;45266;-49
2023/01/11 10:58:28;;;;;;;;;2.00;1.00;;;;;12.57;68.18;101299.44;5019896;28;45286;-50
2023/01/11 11:01:15;;;;;;;;;2.00;2.00;;;;;12.59;67.97;101295.03;5006754;28;45510;-52
2023/01/11 11:04:11;;;;;;;;;2.00;1.00;;;;;12.71;68.03;101311.56;5019837;28;46773;-50
2023/01/11 11:07:10;;;;;;;;;5.25;1.75;;;;;12.79;67.55;101314.97;4994062;28;45797;-50
2023/01/11 11:10:00;;;;;;;;;4.25;2.00;;;;;12.89;67.62;101321.84;5019542;28;45565;-54
2023/01/11 11:12:32;;;;;;;;;3.25;1.00;;;;;12.99;67.64;101326.13;5018863;28;45708;-51
2023/01/11 11:15:00;;;;;;;;;4.75;4.00;;;;;13.08;67.67;101318.94;5019708;28;46237;-51
2023/01/11 11:17:32;;;;;;;;;4.75;2.50;;;;;13.21;68.10;101323.13;5021053;28;45460;-53
2023/01/11 11:19:58;;;;;;;;;1.00;1.00;;;;;13.31;67.76;101321.22;5021181;28;45294;-52
2023/01/11 11:22:23;;;;;;;;;5.50;3.00;;;;;13.46;67.30;101318.34;5020941;28;45259;-52
2023/01/11 11:25:02;;;;;;;;;4.50;2.00;;;;;13.54;67.61;101320.84;5021021;28;47207;-51
2023/01/11 11:27:37;;;;;;;;;5.00;2.25;;;;;13.63;67.67;101314.53;5020748;28;45431;-53
2023/01/11 11:30:03;;;;;;;;;3.00;2.00;;;;;13.75;67.57;101318.75;5020601;28;45427;-53
2023/01/11 11:32:36;;;;;;;;;1.50;1.50;;;;;13.83;67.03;101308.91;5020682;28;45301;-53
2023/01/11 11:35:01;;;;;;;;;4.00;1.75;;;;;13.91;66.67;101311.38;5020326;28;46146;-53
2023/01/11 11:37:32;;;;;;;;;1.00;0.75;;;;;14.00;66.69;101316.53;5020674;28;46476;-51
2023/01/11 11:39:58;;;;;;;;;1.50;1.50;;;;;14.06;66.34;101304.94;5020837;28;45274;-53
2023/01/11 11:42:24;;;;;;;;;1.00;1.00;;;;;14.12;66.18;101310.09;5020393;28;45467;-53
2023/01/11 11:45:07;;;;;;;;;3.50;1.25;;;;;14.20;66.16;101316.13;5020342;28;45675;-53
2023/01/11 11:47:33;;;;;;;;;1.25;1.25;;;;;14.19;65.57;101300.28;5016961;28;45173;-56
2023/01/11 11:50:23;;;;;;;;;4.50;2.00;;;;;14.37;65.51;101323.69;5016855;28;45441;-52
2023/01/11 11:52:53;;;;;;;;;2.75;0.50;;;;;14.42;65.39;101328.91;5019239;28;45511;-53
2023/01/11 11:55:25;;;;;;;;;2.25;0.75;;;;;14.42;65.17;101319.19;5018114;28;45529;-53
2023/01/11 11:57:52;;;;;;;;;2.75;1.00;;;;;14.47;65.55;101325.25;5019291;28;45445;-54
2023/01/11 12:00:29;;;;;;;;;0.75;0.75;;;;;14.49;65.47;101327.88;5019953;28;45757;-54
2023/01/11 12:03:10;;;;;;;;;4.25;2.00;;;;;14.55;64.57;101325.09;5019996;28;45706;-54
2023/01/11 12:05:36;;;;;;;;;1.25;1.00;;;;;14.55;64.64;101314.53;5029221;28;47396;-52
2023/01/11 12:08:02;;;;;;;;;2.50;1.00;;;;;14.52;64.99;101322.50;5018722;28;45408;-55
2023/01/11 12:10:29;;;;;;;;;2.25;1.00;;;;;14.51;64.95;101326.03;5017075;28;45280;-53